Time;durP1;ratioP1;P1;durP2;ratioP2;P2;SDS_P1;SDS_P2;PMS_P1;PMS_P2;Temp;Humidity;BMP_temperature;BMP_pressure;BME280_temperature;BME280_humidity;BME280_pressure;Samples;Min_cycle;Max_cycle;Signal;HPM_P1;HPM_P2
2021/11/03 00:01:14;;;;;;;28.90;18.27;;;;;;;5.87;100.00;100349.92;1763778;80;20959;-44
2021/11/03 00:03:41;;;;;;;37.67;20.85;;;;;;;5.90;100.00;100352.48;1795014;80;20950;-45
2021/11/03 00:06:08;;;;;;;31.00;19.57;;;;;;;5.98;100.00;100349.91;1794831;80;20935;-44
2021/11/03 00:08:36;;;;;;;33.42;19.95;;;;;;;5.98;100.00;100349.91;1795273;80;21001;-43
2021/11/03 00:11:03;;;;;;;26.15;16.75;;;;;;;6.09;100.00;100358.05;1795504;80;21082;-43
2021/11/03 00:13:31;;;;;;;24.80;13.62;;;;;;;6.14;100.00;100357.61;1764845;80;20978;-43
2021/11/03 00:15:58;;;;;;;22.62;14.40;;;;;;;6.17;100.00;100351.17;1795305;79;20998;-43
2021/11/03 00:18:26;;;;;;;23.85;14.50;;;;;;;6.23;100.00;100356.33;1795190;79;20985;-43
2021/11/03 00:20:53;;;;;;;25.85;14.90;;;;;;;6.27;100.00;100354.17;1795237;80;20911;-43
2021/11/03 00:23:19;;;;;;;21.50;14.98;;;;;;;6.34;100.00;100356.31;1795123;80;21187;-43
2021/11/03 00:25:47;;;;;;;22.40;14.18;;;;;;;6.42;100.00;100360.12;1795101;80;20982;-44
2021/11/03 00:28:15;;;;;;;23.20;15.00;;;;;;;6.50;100.00;100387.11;1795269;80;20993;-44
2021/11/03 00:30:41;;;;;;;21.23;15.13;;;;;;;6.57;100.00;100393.97;1795071;80;21500;-44
2021/11/03 00:33:08;;;;;;;26.70;17.45;;;;;;;6.64;100.00;100390.50;1795260;80;21579;-45
2021/11/03 00:35:34;;;;;;;28.17;17.62;;;;;;;6.71;100.00;100381.06;1780268;78;21903;-45
2021/11/03 00:38:01;;;;;;;30.20;19.05;;;;;;;6.75;100.00;100375.03;1752707;81;21607;-44
2021/11/03 00:40:27;;;;;;;27.50;18.35;;;;;;;6.79;100.00;100378.02;1763751;81;21568;-44
2021/11/03 00:42:54;;;;;;;32.95;18.73;;;;;;;6.85;100.00;100381.84;1763686;81;21473;-44
2021/11/03 00:45:21;;;;;;;33.50;20.17;;;;;;;6.91;100.00;100387.41;1733784;81;21653;-44
2021/11/03 00:47:48;;;;;;;42.98;21.93;;;;;;;6.95;100.00;100389.09;1763652;81;21096;-44
2021/11/03 00:50:15;;;;;;;48.42;21.12;;;;;;;6.99;100.00;100389.95;1763713;81;20990;-44
2021/11/03 00:52:42;;;;;;;40.70;20.88;;;;;;;7.04;100.00;100390.77;1763900;81;21045;-44
2021/11/03 00:55:09;;;;;;;32.15;19.85;;;;;;;7.09;100.00;100403.19;1763687;81;20958;-44
2021/11/03 00:57:36;;;;;;;29.35;18.55;;;;;;;7.13;100.00;100408.73;1764324;81;21554;-44
2021/11/03 01:00:06;;;;;;;26.27;19.57;;;;;;;7.16;100.00;100406.14;1780301;80;20962;-44
2021/11/03 01:02:32;;;;;;;31.20;20.20;;;;;;;7.19;100.00;100400.97;1766516;81;20982;-44
2021/11/03 01:04:59;;;;;;;30.20;19.20;;;;;;;7.22;100.00;100402.69;1725310;82;20986;-44
2021/11/03 01:07:26;;;;;;;28.60;19.73;;;;;;;7.22;100.00;100400.11;1780343;80;21009;-44
2021/11/03 01:09:53;;;;;;;28.95;18.90;;;;;;;7.25;100.00;100405.24;1766765;81;21002;-44
2021/11/03 01:12:20;;;;;;;28.10;18.45;;;;;;;7.26;100.00;100408.23;1780529;80;21129;-45
2021/11/03 01:14:47;;;;;;;26.12;19.20;;;;;;;7.28;100.00;100408.25;1766475;81;21002;-43
2021/11/03 01:17:13;;;;;;;26.52;19.32;;;;;;;7.31;100.00;100412.09;1780482;80;20884;-44
2021/11/03 01:19:41;;;;;;;29.55;19.42;;;;;;;7.33;100.00;100415.51;1766443;81;21535;-43
2021/11/03 01:22:07;;;;;;;28.52;18.07;;;;;;;7.36;100.00;100416.77;1780312;80;21512;-44
2021/11/03 01:24:34;;;;;;;29.70;18.55;;;;;;;7.37;100.00;100412.05;1766735;79;21119;-44
2021/11/03 01:27:00;;;;;;;27.93;17.95;;;;;;;7.39;100.00;100410.31;1780272;80;21590;-43
2021/11/03 01:29:27;;;;;;;25.55;17.25;;;;;;;7.42;100.00;100414.16;1766662;81;21042;-43
2021/11/03 01:31:54;;;;;;;31.52;20.23;;;;;;;7.43;100.00;100409.87;1780385;80;21020;-43
2021/11/03 01:34:21;;;;;;;28.23;19.98;;;;;;;7.44;100.00;100411.13;1766641;81;21025;-43
2021/11/03 01:36:48;;;;;;;30.52;19.27;;;;;;;7.45;100.00;100410.30;1780347;80;21120;-44
2021/11/03 01:39:15;;;;;;;27.90;18.30;;;;;;;7.46;100.00;100411.14;1738740;81;21009;-44
2021/11/03 01:41:42;;;;;;;29.32;19.32;;;;;;;7.47;100.00;100408.56;1780321;80;21503;-44
2021/11/03 01:44:15;;;;;;;26.70;18.92;;;;;;;7.51;100.00;100414.98;1766618;81;21550;-43
2021/11/03 01:47:04;;;;;;;30.52;20.32;;;;;;;7.51;100.00;100416.27;1780358;80;21520;-43
2021/11/03 01:49:33;;;;;;;28.35;19.52;;;;;;;7.53;100.00;100423.11;1765089;81;21776;-43
2021/11/03 01:52:11;;;;;;;26.73;18.48;;;;;;;7.54;100.00;100429.12;1780560;80;21504;-44
2021/11/03 01:54:51;;;;;;;28.07;19.25;;;;;;;7.54;100.00;100427.39;1766134;81;20951;-44
2021/11/03 01:57:30;;;;;;;35.35;21.17;;;;;;;7.56;100.00;100431.26;1780494;80;21440;-43
2021/11/03 02:00:00;;;;;;;32.20;19.52;;;;;;;7.54;100.00;100432.99;1750861;81;20951;-43
2021/11/03 02:02:28;;;;;;;37.65;19.82;;;;;;;7.54;100.00;100442.84;1747731;82;21066;-43
2021/11/03 02:04:55;;;;;;;28.67;18.40;;;;;;;7.56;100.00;100435.12;1750359;82;21492;-44
2021/11/03 02:07:26;;;;;;;30.70;19.15;;;;;;;7.57;100.00;100433.80;1750479;82;20994;-43
2021/11/03 02:09:54;;;;;;;28.02;19.25;;;;;;;7.59;100.00;100428.66;1747750;82;21059;-44
2021/11/03 02:12:25;;;;;;;29.82;19.27;;;;;;;7.58;100.00;100434.27;1750431;82;21054;-43
2021/11/03 02:14:52;;;;;;;28.75;18.48;;;;;;;7.58;100.00;100426.95;1750459;82;20995;-43
2021/11/03 02:17:19;;;;;;;26.42;18.62;;;;;;;7.59;100.00;100425.66;1750478;82;20987;-43
2021/11/03 02:19:46;;;;;;;31.40;19.48;;;;;;;7.59;100.00;100424.80;1750497;82;21059;-43
2021/11/03 02:22:25;;;;;;;29.82;18.82;;;;;;;7.58;100.00;100431.69;1750560;82;21560;-43
2021/11/03 02:25:06;;;;;;;28.65;19.05;;;;;;;7.58;100.00;100423.95;1747755;82;21022;-44
2021/11/03 02:27:33;;;;;;;30.27;18.10;;;;;;;7.57;100.00;100421.38;1750262;82;21218;-44
2021/11/03 02:30:00;;;;;;;29.60;19.60;;;;;;;7.56;100.00;100429.52;1750538;82;20951;-44
2021/11/03 02:32:30;;;;;;;32.88;19.30;;;;;;;7.58;100.00;100428.23;1750925;82;20916;-43
2021/11/03 02:34:57;;;;;;;29.15;19.27;;;;;;;7.58;100.00;100426.53;1750405;82;20990;-43
2021/11/03 02:37:35;;;;;;;33.33;20.05;;;;;;;7.58;100.00;100424.38;1750816;82;20947;-43
2021/11/03 02:40:20;;;;;;;27.40;18.57;;;;;;;7.58;100.00;100430.81;1750382;82;21074;-43
2021/11/03 02:42:51;;;;;;;32.15;18.75;;;;;;;7.57;100.00;100428.66;1750705;82;21018;-43
2021/11/03 02:45:28;;;;;;;27.67;18.30;;;;;;;7.57;100.00;100427.81;1750401;82;20990;-43
2021/11/03 02:47:56;;;;;;;27.52;18.70;;;;;;;7.57;100.00;100423.95;1750529;82;20971;-43
2021/11/03 02:50:22;;;;;;;28.67;18.50;;;;;;;7.57;100.00;100427.81;1750406;82;20919;-44
2021/11/03 02:52:49;;;;;;;27.25;17.07;;;;;;;7.55;100.00;100421.38;1750472;82;22043;-44
2021/11/03 02:55:15;;;;;;;24.63;17.02;;;;;;;7.56;100.00;100421.80;1750541;82;21580;-43
2021/11/03 02:57:42;;;;;;;24.77;16.90;;;;;;;7.55;100.00;100422.66;1750554;82;21599;-43
2021/11/03 03:00:14;;;;;;;23.22;15.48;;;;;;;7.55;100.00;100425.69;1755550;81;20982;-44
2021/11/03 03:02:41;;;;;;;26.10;18.20;;;;;;;7.56;100.00;100426.11;1756032;81;20939;-44
2021/11/03 03:05:07;;;;;;;20.12;16.07;;;;;;;7.57;100.00;100431.68;1756037;81;21078;-43
2021/11/03 03:07:35;;;;;;;27.17;16.97;;;;;;;7.56;100.00;100427.39;1756057;81;21057;-43
2021/11/03 03:10:04;;;;;;;24.87;16.12;;;;;;;7.57;100.00;100424.79;1737003;81;20986;-44
2021/11/03 03:12:33;;;;;;;25.75;17.75;;;;;;;7.58;100.00;100429.11;1756008;81;21006;-44
2021/11/03 03:15:00;;;;;;;25.40;17.90;;;;;;;7.58;100.00;100427.82;1756077;81;20982;-44
2021/11/03 03:17:28;;;;;;;30.57;17.67;;;;;;;7.59;100.00;100424.80;1756114;81;21154;-44
2021/11/03 03:19:55;;;;;;;27.87;17.05;;;;;;;7.59;100.00;100426.08;1755991;81;21045;-43
2021/11/03 03:22:22;;;;;;;22.65;15.78;;;;;;;7.58;100.00;100418.80;1756052;81;20935;-43
2021/11/03 03:24:51;;;;;;;23.10;16.40;;;;;;;7.59;100.00;100429.95;1755517;81;21475;-43
2021/11/03 03:27:18;;;;;;;23.62;18.23;;;;;;;7.59;100.00;100430.81;1756183;81;22155;-43
2021/11/03 03:29:45;;;;;;;28.47;18.98;;;;;;;7.57;100.00;100432.97;1756172;81;21911;-43
2021/11/03 03:32:13;;;;;;;28.07;19.02;;;;;;;7.56;100.00;100425.66;1755940;81;20939;-44
2021/11/03 03:34:40;;;;;;;23.80;17.60;;;;;;;7.57;100.00;100427.37;1756082;81;20971;-44
2021/11/03 03:37:07;;;;;;;28.85;19.42;;;;;;;7.57;100.00;100425.23;1755962;81;20986;-44
2021/11/03 03:39:35;;;;;;;28.23;17.20;;;;;;;7.55;100.00;100426.52;1756018;81;21018;-44
2021/11/03 03:42:13;;;;;;;25.43;17.10;;;;;;;7.56;100.00;100432.55;1756120;81;21127;-43
2021/11/03 03:44:42;;;;;;;27.37;16.97;;;;;;;7.56;100.00;100434.67;1755886;81;21501;-43
2021/11/03 03:47:09;;;;;;;27.22;18.27;;;;;;;7.56;100.00;100426.11;1756026;81;20947;-44
2021/11/03 03:49:36;;;;;;;27.30;17.32;;;;;;;7.57;100.00;100425.23;1755984;81;20987;-45
2021/11/03 03:52:05;;;;;;;25.27;16.45;;;;;;;7.58;100.00;100431.69;1756005;81;21019;-45
2021/11/03 03:54:32;;;;;;;27.55;17.48;;;;;;;7.58;100.00;100427.82;1756268;81;21096;-45
2021/11/03 03:56:59;;;;;;;26.25;17.20;;;;;;;7.60;100.00;100434.23;1756060;81;20923;-44
2021/11/03 03:59:27;;;;;;;32.98;18.27;;;;;;;7.60;100.00;100440.67;1757634;81;21551;-45
2021/11/03 04:04:45;;;;;;;27.62;17.92;;;;;;;7.65;100.00;100436.34;1815479;79;22624;-43
2021/11/03 04:07:12;;;;;;;24.85;17.60;;;;;;;7.61;100.00;100435.52;1788568;80;20920;-43
2021/11/03 04:09:39;;;;;;;26.00;17.90;;;;;;;7.62;100.00;100440.23;1788500;80;21174;-44
2021/11/03 04:12:08;;;;;;;29.55;18.60;;;;;;;7.63;100.00;100435.50;1733255;80;21592;-44
2021/11/03 04:14:36;;;;;;;34.55;18.20;;;;;;;7.65;100.00;100438.08;1788481;80;20975;-44
2021/11/03 04:17:04;;;;;;;26.70;17.62;;;;;;;7.64;100.00;100433.34;1788614;80;20900;-44
2021/11/03 04:19:31;;;;;;;23.02;17.95;;;;;;;7.63;100.00;100436.78;1788493;80;21018;-44
2021/11/03 04:21:58;;;;;;;31.87;18.80;;;;;;;7.62;100.00;100444.09;1788443;80;21072;-45
2021/11/03 04:24:26;;;;;;;25.70;18.25;;;;;;;7.62;100.00;100450.53;1787334;80;21513;-44
2021/11/03 04:26:54;;;;;;;31.20;20.48;;;;;;;7.61;100.00;100445.83;1788730;80;21022;-43
2021/11/03 04:29:22;;;;;;;30.37;18.85;;;;;;;7.60;100.00;100448.41;1788429;80;21018;-44
2021/11/03 04:31:49;;;;;;;33.08;20.00;;;;;;;7.62;100.00;100454.40;1788813;80;20986;-44
2021/11/03 04:34:17;;;;;;;32.15;20.37;;;;;;;7.61;100.00;100450.11;1788592;80;21154;-45
2021/11/03 04:36:44;;;;;;;33.10;20.10;;;;;;;7.61;100.00;100456.55;1788368;80;21030;-44
2021/11/03 04:39:11;;;;;;;29.72;21.27;;;;;;;7.61;100.00;100450.11;1788483;80;20979;-45
2021/11/03 04:41:39;;;;;;;39.00;22.30;;;;;;;7.60;100.00;100455.72;1788758;80;22173;-45
2021/11/03 04:44:06;;;;;;;33.23;20.68;;;;;;;7.60;100.00;100453.14;1757758;80;20939;-44
2021/11/03 04:46:34;;;;;;;30.17;20.40;;;;;;;7.60;100.00;100457.42;1765269;80;21200;-44
2021/11/03 04:49:00;;;;;;;34.83;20.90;;;;;;;7.60;100.00;100456.13;1759660;81;20979;-44
2021/11/03 04:51:27;;;;;;;33.33;21.82;;;;;;;7.61;100.00;100454.84;1760054;80;20944;-44
2021/11/03 04:53:54;;;;;;;32.95;21.20;;;;;;;7.61;100.00;100461.29;1759705;81;20896;-44
2021/11/03 04:56:24;;;;;;;39.80;21.77;;;;;;;7.63;100.00;100456.11;1759644;80;21529;-45
2021/11/03 04:58:52;;;;;;;30.65;20.55;;;;;;;7.63;100.00;100459.97;1759785;81;21772;-44
2021/11/03 05:01:22;;;;;;;32.70;21.70;;;;;;;7.64;100.00;100457.81;1759787;81;20987;-45
2021/11/03 05:03:50;;;;;;;33.40;21.75;;;;;;;7.66;100.00;100465.10;1754571;80;20974;-44
2021/11/03 05:06:19;;;;;;;35.38;21.55;;;;;;;7.66;100.00;100467.68;1749309;82;20960;-44
2021/11/03 05:08:48;;;;;;;33.50;21.60;;;;;;;7.65;100.00;100468.55;1749500;82;20992;-42
2021/11/03 05:11:17;;;;;;;33.78;22.52;;;;;;;7.66;100.00;100468.97;1749240;82;21151;-44
2021/11/03 05:13:44;;;;;;;36.38;22.30;;;;;;;7.68;100.00;100472.84;1749462;82;20932;-43
2021/11/03 05:16:17;;;;;;;33.23;21.40;;;;;;;7.69;100.00;100473.26;1748680;81;20929;-44
2021/11/03 05:18:45;;;;;;;40.65;22.13;;;;;;;7.70;100.00;100478.83;1748744;82;20910;-44
2021/11/03 05:21:12;;;;;;;37.80;21.30;;;;;;;7.72;100.00;100478.39;1746091;82;20901;-44
2021/11/03 05:23:40;;;;;;;39.13;23.55;;;;;;;7.74;100.00;100483.97;1748941;82;21072;-43
2021/11/03 05:26:08;;;;;;;34.35;21.40;;;;;;;7.75;100.00;100484.39;1746110;82;20956;-44
2021/11/03 05:28:38;;;;;;;35.68;23.05;;;;;;;7.78;100.00;100483.95;1721688;82;21031;-44
2021/11/03 05:31:05;;;;;;;35.65;22.75;;;;;;;7.79;100.00;100495.52;1749022;82;20944;-44
2021/11/03 05:33:31;;;;;;;33.88;21.37;;;;;;;7.80;100.00;100493.81;1748815;82;20968;-45
2021/11/03 05:35:58;;;;;;;38.53;21.62;;;;;;;7.84;100.00;100492.50;1748766;82;21744;-43
2021/11/03 05:38:24;;;;;;;39.90;22.20;;;;;;;7.86;100.00;100488.19;1748782;82;21458;-44
2021/11/03 05:40:51;;;;;;;39.78;21.95;;;;;;;7.88;100.00;100482.59;1748795;82;21512;-44
2021/11/03 05:43:17;;;;;;;33.05;22.20;;;;;;;7.91;100.00;100482.98;1748709;81;21086;-44
2021/11/03 05:45:44;;;;;;;36.15;23.87;;;;;;;7.93;100.00;100492.00;1748752;81;20968;-44
2021/11/03 05:48:11;;;;;;;39.30;23.15;;;;;;;7.95;100.00;100487.24;1748797;82;21158;-44
2021/11/03 05:50:38;;;;;;;41.08;23.35;;;;;;;7.99;100.00;100497.98;1748757;82;21521;-44
2021/11/03 05:53:04;;;;;;;42.78;23.38;;;;;;;8.03;100.00;100503.53;1746003;82;21691;-43
2021/11/03 05:55:31;;;;;;;34.65;21.70;;;;;;;8.07;100.00;100504.34;1748585;81;20940;-44
2021/11/03 05:57:57;;;;;;;32.17;21.77;;;;;;;8.14;100.00;100506.03;1745888;82;20909;-45
2021/11/03 06:00:28;;;;;;;33.00;21.87;;;;;;;8.20;100.00;100497.38;1748675;82;21807;-44
2021/11/03 06:02:54;;;;;;;34.60;22.60;;;;;;;8.25;100.00;100490.48;1748593;82;21561;-44
2021/11/03 06:05:22;;;;;;;43.17;23.57;;;;;;;8.31;100.00;100499.45;1756507;81;20948;-44
2021/11/03 06:07:53;;;;;;;36.13;22.20;;;;;;;8.37;100.00;100502.84;1759410;81;21494;-44
2021/11/03 06:10:28;;;;;;;36.33;22.55;;;;;;;8.43;100.00;100500.20;1759396;81;20932;-44
2021/11/03 06:12:56;;;;;;;43.63;22.73;;;;;;;8.49;100.00;100500.17;1759557;81;21803;-44
2021/11/03 06:15:23;;;;;;;34.13;22.60;;;;;;;8.54;100.00;100499.72;1759461;81;21501;-44
2021/11/03 06:17:51;;;;;;;32.23;22.50;;;;;;;8.58;100.00;100503.97;1731563;81;21067;-44
2021/11/03 06:20:17;;;;;;;37.73;23.60;;;;;;;8.63;100.00;100503.48;1759373;81;20979;-44
2021/11/03 06:22:44;;;;;;;39.15;22.80;;;;;;;8.67;100.00;100496.59;1756684;81;21022;-44
2021/11/03 06:25:15;;;;;;;36.48;23.70;;;;;;;8.71;100.00;100492.23;1759371;81;21156;-44
2021/11/03 06:27:42;;;;;;;41.60;23.50;;;;;;;8.75;100.00;100489.61;1759270;81;20916;-44
2021/11/03 06:30:17;;;;;;;39.33;23.18;;;;;;;8.80;100.00;100484.83;1759366;81;21533;-45
2021/11/03 06:32:43;;;;;;;35.68;23.25;;;;;;;8.86;100.00;100487.37;1732840;81;20963;-44
2021/11/03 06:35:11;;;;;;;34.40;21.15;;;;;;;8.94;100.00;100487.26;1756916;81;21505;-44
2021/11/03 06:37:39;;;;;;;40.43;24.37;;;;;;;9.02;100.00;100488.05;1759344;81;21130;-44
2021/11/03 06:40:08;;;;;;;39.03;24.12;;;;;;;9.13;100.00;100495.67;1759667;81;20936;-44
2021/11/03 06:42:34;;;;;;;37.60;23.35;;;;;;;9.22;100.00;100502.01;1759682;81;20979;-44
2021/11/03 06:45:04;;;;;;;41.42;24.02;;;;;;;9.31;100.00;100495.88;1756533;80;21046;-44
2021/11/03 06:47:30;;;;;;;41.45;22.82;;;;;;;9.34;100.00;100507.46;1759697;81;20959;-44
2021/11/03 06:49:57;;;;;;;35.85;22.60;;;;;;;9.39;100.00;100510.84;1759386;81;21142;-44
2021/11/03 06:52:26;;;;;;;35.92;23.73;;;;;;;9.43;100.00;100511.21;1759566;81;20908;-44
2021/11/03 06:54:54;;;;;;;31.73;21.95;;;;;;;9.44;100.00;100511.63;1759352;81;20904;-44
2021/11/03 06:57:20;;;;;;;37.73;23.65;;;;;;;9.44;100.00;100516.80;1759579;81;21026;-43
2021/11/03 06:59:50;;;;;;;41.20;23.42;;;;;;;9.46;100.00;100507.74;1759537;81;21709;-44
2021/11/03 07:02:18;;;;;;;42.73;23.18;;;;;;;9.48;100.00;100513.33;1759643;81;21113;-44
2021/11/03 07:04:45;;;;;;;36.10;23.02;;;;;;;9.52;100.00;100523.62;1751160;81;20988;-44
2021/11/03 07:07:11;;;;;;;34.98;23.32;;;;;;;9.54;100.00;100517.53;1746058;82;20999;-44
2021/11/03 07:09:38;;;;;;;31.75;21.60;;;;;;;9.56;100.00;100516.23;1746052;82;20996;-44
2021/11/03 07:12:06;;;;;;;33.88;22.67;;;;;;;9.57;100.00;100517.48;1746143;82;20963;-44
2021/11/03 07:14:34;;;;;;;35.05;23.15;;;;;;;9.60;100.00;100515.31;1745901;82;20889;-44
2021/11/03 07:17:00;;;;;;;36.30;22.20;;;;;;;9.59;100.00;100521.36;1745934;82;20944;-44
2021/11/03 07:19:27;;;;;;;35.65;22.87;;;;;;;9.61;100.00;100517.89;1746227;82;20936;-43
2021/11/03 07:21:53;;;;;;;35.73;22.77;;;;;;;9.63;100.00;100521.73;1745932;82;20913;-44
2021/11/03 07:24:20;;;;;;;40.63;23.85;;;;;;;9.61;100.00;100523.48;1746101;82;21651;-44
2021/11/03 07:26:46;;;;;;;39.70;25.45;;;;;;;9.63;100.00;100520.02;1746025;82;22266;-44
2021/11/03 07:29:13;;;;;;;44.85;27.00;;;;;;;9.65;100.00;100513.52;1749891;82;21020;-45
2021/11/03 07:31:39;;;;;;;41.02;27.45;;;;;;;9.68;100.00;100517.80;1745928;82;21541;-45
2021/11/03 07:34:06;;;;;;;40.98;27.07;;;;;;;9.73;100.00;100523.76;1745916;81;20937;-45
2021/11/03 07:36:33;;;;;;;43.48;26.85;;;;;;;9.80;100.00;100528.41;1746011;82;21446;-45
2021/11/03 07:38:59;;;;;;;40.43;26.25;;;;;;;9.89;100.00;100530.85;1745996;82;21815;-45
2021/11/03 07:41:26;;;;;;;47.13;28.45;;;;;;;9.97;100.00;100530.30;1724368;82;21003;-45
2021/11/03 07:43:52;;;;;;;45.92;29.80;;;;;;;10.00;99.72;100530.70;1745941;82;20936;-45
2021/11/03 07:46:18;;;;;;;50.40;29.92;;;;;;;10.00;99.33;100523.81;1745937;82;20991;-44
2021/11/03 07:48:45;;;;;;;45.28;27.90;;;;;;;9.96;98.84;100526.00;1746056;82;20963;-45
2021/11/03 07:51:14;;;;;;;44.33;27.17;;;;;;;9.89;99.06;100523.97;1746057;82;21139;-45
2021/11/03 07:53:41;;;;;;;41.30;26.80;;;;;;;9.88;99.36;100524.84;1745949;80;21027;-45
2021/11/03 07:56:11;;;;;;;48.87;28.40;;;;;;;9.89;99.54;100521.80;1746178;82;21019;-45
2021/11/03 07:58:38;;;;;;;48.45;29.55;;;;;;;9.90;99.67;100521.80;1725500;82;20992;-45
2021/11/03 08:01:05;;;;;;;47.10;28.00;;;;;;;9.90;100.00;100524.80;1746221;82;20996;-45
2021/11/03 08:03:32;;;;;;;42.40;27.93;;;;;;;9.92;100.00;100517.88;1745872;82;21098;-45
2021/11/03 08:06:00;;;;;;;41.68;26.80;;;;;;;9.88;100.00;100521.39;1745769;81;20941;-44
2021/11/03 08:08:31;;;;;;;43.68;27.48;;;;;;;9.90;100.00;100523.52;1745917;82;20972;-44
2021/11/03 08:10:59;;;;;;;42.67;26.82;;;;;;;9.88;100.00;100523.55;1745907;82;20967;-45
2021/11/03 08:13:30;;;;;;;48.70;28.23;;;;;;;9.91;100.00;100520.05;1745932;82;21015;-45
2021/11/03 08:15:57;;;;;;;51.20;29.55;;;;;;;9.91;100.00;100517.04;1745974;81;21142;-45
2021/11/03 08:18:27;;;;;;;45.58;30.50;;;;;;;9.93;100.00;100517.00;1746196;82;21011;-45
2021/11/03 08:20:54;;;;;;;53.08;32.48;;;;;;;9.92;100.00;100523.05;1746087;82;21497;-45
2021/11/03 08:23:21;;;;;;;55.70;34.55;;;;;;;9.94;100.00;100517.87;1746212;82;21564;-45
2021/11/03 08:25:47;;;;;;;56.23;33.30;;;;;;;9.94;100.00;100523.04;1745874;82;21011;-45
2021/11/03 08:28:14;;;;;;;61.33;35.83;;;;;;;9.95;100.00;100524.30;1745976;82;21140;-45
2021/11/03 08:30:46;;;;;;;65.67;36.40;;;;;;;9.96;100.00;100525.16;1745850;82;20898;-45
2021/11/03 08:33:20;;;;;;;61.20;37.28;;;;;;;9.99;100.00;100529.86;1725984;82;21015;-45
2021/11/03 08:35:49;;;;;;;73.72;36.50;;;;;;;10.02;100.00;100537.57;1745715;82;21478;-45
2021/11/03 08:38:17;;;;;;;73.47;37.67;;;;;;;10.04;100.00;100537.11;1746317;82;21092;-45
2021/11/03 08:40:44;;;;;;;64.80;38.85;;;;;;;10.02;100.00;100532.82;1745873;82;21197;-43
2021/11/03 08:43:13;;;;;;;69.92;41.50;;;;;;;10.01;100.00;100537.16;1745782;82;20901;-43
2021/11/03 08:45:40;;;;;;;66.35;39.33;;;;;;;10.01;100.00;100536.29;1746044;82;20984;-43
2021/11/03 08:48:07;;;;;;;76.10;41.83;;;;;;;9.95;100.00;100542.39;1746242;82;20968;-43
2021/11/03 08:50:37;;;;;;;71.45;40.35;;;;;;;9.91;100.00;100542.03;1746379;82;20964;-43
2021/11/03 08:53:05;;;;;;;85.35;44.18;;;;;;;9.89;100.00;100533.02;1746024;82;21146;-43
2021/11/03 08:55:32;;;;;;;68.62;41.40;;;;;;;9.89;100.00;100539.48;1746369;82;20969;-44
2021/11/03 08:58:00;;;;;;;81.10;46.48;;;;;;;9.90;100.00;100542.91;1746140;82;20991;-43
2021/11/03 09:00:31;;;;;;;80.85;44.30;;;;;;;9.88;100.00;100534.31;1746227;82;21014;-43
2021/11/03 09:02:57;;;;;;;81.90;46.90;;;;;;;9.85;100.00;100534.36;1724516;82;21521;-43
2021/11/03 09:05:26;;;;;;;76.37;43.90;;;;;;;9.83;100.00;100542.13;1747791;80;21768;-44
2021/11/03 09:07:53;;;;;;;77.92;44.23;;;;;;;9.83;100.00;100545.17;1748719;82;20937;-44
2021/11/03 09:10:23;;;;;;;73.12;40.17;;;;;;;9.85;100.00;100541.70;1748655;82;20987;-44
2021/11/03 09:12:49;;;;;;;75.60;43.40;;;;;;;9.88;100.00;100541.65;1748661;82;20948;-44
2021/11/03 09:15:17;;;;;;;72.87;43.63;;;;;;;9.91;100.00;100547.20;1748682;82;20936;-44
2021/11/03 09:17:44;;;;;;;72.03;41.63;;;;;;;9.94;100.00;100546.31;1721344;82;21121;-44
2021/11/03 09:20:11;;;;;;;70.52;42.30;;;;;;;9.94;100.00;100544.56;1748978;82;20987;-44
2021/11/03 09:22:38;;;;;;;77.75;42.40;;;;;;;9.95;100.00;100543.69;1748694;82;21003;-44
2021/11/03 09:25:07;;;;;;;69.12;40.52;;;;;;;9.96;100.00;100549.27;1748517;82;20975;-44
2021/11/03 09:27:34;;;;;;;63.98;38.65;;;;;;;9.99;100.00;100544.09;1748719;82;20960;-44
2021/11/03 09:30:01;;;;;;;64.75;39.35;;;;;;;10.00;100.00;100538.45;1748747;82;21120;-44
2021/11/03 09:32:33;;;;;;;64.07;38.90;;;;;;;9.99;100.00;100537.62;1748682;82;20996;-44
2021/11/03 09:35:01;;;;;;;69.35;39.67;;;;;;;10.01;100.00;100541.03;1748703;82;21010;-45
2021/11/03 09:37:29;;;;;;;69.58;41.02;;;;;;;10.01;100.00;100534.99;1748707;82;20972;-45
2021/11/03 09:39:56;;;;;;;65.67;39.10;;;;;;;10.01;100.00;100537.16;1748893;82;20893;-45
2021/11/03 09:42:24;;;;;;;60.23;36.13;;;;;;;10.03;100.00;100538.41;1721594;82;21183;-45
2021/11/03 09:44:53;;;;;;;57.83;35.90;;;;;;;10.08;100.00;100540.48;1748476;82;21031;-44
2021/11/03 09:47:27;;;;;;;62.85;37.80;;;;;;;10.11;100.00;100535.29;1748649;82;21529;-45
2021/11/03 09:50:00;;;;;;;60.48;36.13;;;;;;;10.17;100.00;100530.02;1745877;82;21490;-45
2021/11/03 09:52:37;;;;;;;69.90;38.58;;;;;;;10.16;100.00;100528.73;1748940;82;21526;-44
2021/11/03 09:55:15;;;;;;;61.68;36.63;;;;;;;10.19;100.00;100528.68;1748674;82;21204;-45
2021/11/03 09:57:48;;;;;;;64.77;37.65;;;;;;;10.20;100.00;100532.97;1743639;82;21004;-45
2021/11/03 10:00:52;;;;;;;65.12;37.60;;;;;;;10.20;100.00;100527.38;1748683;82;20901;-46
2021/11/03 10:03:33;;;;;;;63.28;38.10;;;;;;;10.18;100.00;100532.14;1721053;82;21075;-46
2021/11/03 10:06:30;;;;;;;59.42;36.48;;;;;;;10.14;100.00;100538.25;1748692;81;21027;-45
2021/11/03 10:08:56;;;;;;;;;;;;;;;10.13;100.00;100536.12;1751326;82;21178;-44
2021/11/03 10:11:36;;;;;;;56.95;34.78;;;;;;;10.16;100.00;100533.48;1721468;82;20091;-44
2021/11/03 10:14:04;;;;;;;60.90;35.38;;;;;;;10.16;100.00;100524.42;1748660;82;21015;-45
2021/11/03 10:16:48;;;;;;;63.20;35.35;;;;;;;10.16;100.00;100527.02;1748701;81;21015;-44
2021/11/03 10:19:21;;;;;;;54.15;33.58;;;;;;;10.18;100.00;100529.56;1721494;82;21517;-45
2021/11/03 10:21:54;;;;;;;57.33;34.53;;;;;;;10.20;100.00;100536.43;1745861;82;21129;-46
2021/11/03 10:24:32;;;;;;;59.45;34.43;;;;;;;10.24;100.00;100531.20;1748556;82;20969;-45
2021/11/03 10:27:13;;;;;;;52.73;32.33;;;;;;;10.26;100.00;100532.03;1748932;82;21537;-45
2021/11/03 10:29:50;;;;;;;51.90;31.55;;;;;;;10.25;100.00;100536.37;1720536;82;21036;-45
2021/11/03 10:32:36;;;;;;;60.90;32.75;;;;;;;10.28;100.00;100528.98;1749076;82;21023;-46
2021/11/03 10:35:23;;;;;;;53.20;32.30;;;;;;;10.30;100.00;100533.69;1718794;82;21835;-45
2021/11/03 10:37:58;;;;;;;48.20;32.00;;;;;;;10.30;100.00;100529.38;1748123;82;21449;-46
2021/11/03 10:40:50;;;;;;;54.05;33.15;;;;;;;10.31;100.00;100526.34;1753350;81;21011;-46
2021/11/03 10:43:38;;;;;;;54.77;32.23;;;;;;;10.32;100.00;100523.73;1748249;82;20963;-45
2021/11/03 10:46:20;;;;;;;56.02;33.73;;;;;;;10.34;100.00;100521.11;1747073;82;20984;-43
2021/11/03 10:48:58;;;;;;;53.40;33.80;;;;;;;10.35;100.00;100518.94;1748366;82;21173;-43
2021/11/03 10:51:38;;;;;;;62.35;35.38;;;;;;;10.34;100.00;100519.81;1747491;82;21497;-43
2021/11/03 10:54:19;;;;;;;55.80;33.75;;;;;;;10.35;100.00;100512.05;1748664;81;20905;-43
2021/11/03 10:56:59;;;;;;;50.63;32.33;;;;;;;10.35;100.00;100516.34;1746159;81;21011;-44
2021/11/03 10:59:29;;;;;;;52.50;30.70;;;;;;;10.34;100.00;100517.23;1748857;81;21489;-44
2021/11/03 11:02:00;;;;;;;54.80;32.83;;;;;;;10.37;100.00;100508.57;1748554;82;21117;-45
2021/11/03 11:04:31;;;;;;;54.60;32.48;;;;;;;10.40;100.00;100508.52;1748569;81;20948;-44
2021/11/03 11:07:25;;;;;;;54.35;33.35;;;;;;;10.40;100.00;100514.59;1748332;81;20936;-44
2021/11/03 11:10:06;;;;;;;52.10;30.97;;;;;;;10.43;100.00;100517.12;1735809;82;21051;-45
2021/11/03 11:12:37;;;;;;;49.13;30.12;;;;;;;10.47;100.00;100517.91;1734193;82;21580;-44
2021/11/03 11:15:15;;;;;;;48.13;30.45;;;;;;;10.44;100.00;100517.54;1716561;82;21061;-44
2021/11/03 11:18:09;;;;;;;47.95;29.37;;;;;;;10.42;100.00;100527.06;1742554;82;21502;-45
2021/11/03 11:20:42;;;;;;;44.33;28.90;;;;;;;10.41;100.00;100521.48;1710528;82;20999;-44
2021/11/03 11:23:57;;;;;;;49.55;29.90;;;;;;;10.41;100.00;100529.66;1748767;82;20925;-44